N274MM PHTO-PHTO
Flight info
| Callsign | N274MM |
|---|---|
| Flight time | 0h 5m |
| Altitude | 2500 |
| Route | PHTO DCT PHTO |
| Aircraft | DA62/L-VGD/C |
Departure
| Time | 2026-04-19 14:41 |
|---|---|
| Airport | Hilo International Airport (PHTO) |
Arrival
| Time | 2026-04-19 14:46 |
|---|---|
| Airport | Hilo International Airport (PHTO) |
| Time | Latitude | Longitude | Altitude | Speed | Heading |
|---|---|---|---|---|---|
| 2026-04-19 14:25 | 19.71965 | -155.05892 | 31 ft | 0 kts | 181° |
| 2026-04-19 14:35 | 19.71952 | -155.05891 | 31 ft | 0 kts | 149° |
| 2026-04-19 14:36 | 19.71947 | -155.05876 | 31 ft | 10 kts | 90° |
| 2026-04-19 14:36 | 19.71956 | -155.05761 | 32 ft | 16 kts | 72° |
| 2026-04-19 14:37 | 19.72016 | -155.05663 | 33 ft | 16 kts | 42° |
| 2026-04-19 14:37 | 19.72056 | -155.05621 | 33 ft | 0 kts | 41° |
| 2026-04-19 14:39 | 19.72058 | -155.05619 | 33 ft | 3 kts | 37° |
| 2026-04-19 14:39 | 19.72110 | -155.05577 | 34 ft | 15 kts | 38° |
| 2026-04-19 14:39 | 19.72149 | -155.05437 | 35 ft | 38 kts | 91° |
| 2026-04-19 14:40 | 19.72147 | -155.04951 | 32 ft | 88 kts | 90° |
| 2026-04-19 14:40 | 19.72153 | -155.04209 | 94 ft | 107 kts | 94° |
| 2026-04-19 14:40 | 19.72169 | -155.03434 | 370 ft | 100 kts | 89° |
| 2026-04-19 14:40 | 19.72177 | -155.02706 | 488 ft | 98 kts | 92° |
| 2026-04-19 14:41 | 19.72216 | -155.02020 | 684 ft | 90 kts | 86° |
| 2026-04-19 14:41 | 19.72259 | -155.01360 | 844 ft | 90 kts | 90° |
| 2026-04-19 14:41 | 19.72364 | -155.00715 | 1041 ft | 88 kts | 66° |
| 2026-04-19 14:41 | 19.72823 | -155.00191 | 1091 ft | 116 kts | 38° |
| 2026-04-19 14:42 | 19.73668 | -154.99922 | 1152 ft | 136 kts | 358° |
| 2026-04-19 14:42 | 19.74519 | -155.00344 | 1318 ft | 145 kts | 313° |
| 2026-04-19 14:42 | 19.74860 | -155.01359 | 1295 ft | 149 kts | 268° |
| 2026-04-19 14:42 | 19.74805 | -155.02419 | 1298 ft | 140 kts | 263° |
| 2026-04-19 14:43 | 19.74700 | -155.03430 | 1257 ft | 137 kts | 261° |
| 2026-04-19 14:43 | 19.74564 | -155.04393 | 1272 ft | 130 kts | 260° |
| 2026-04-19 14:43 | 19.74470 | -155.05328 | 1284 ft | 129 kts | 264° |
| 2026-04-19 14:43 | 19.74379 | -155.06272 | 1271 ft | 128 kts | 263° |
| 2026-04-19 14:44 | 19.74289 | -155.07205 | 1281 ft | 126 kts | 264° |
| 2026-04-19 14:44 | 19.74193 | -155.08126 | 1264 ft | 126 kts | 261° |
| 2026-04-19 14:44 | 19.73888 | -155.08973 | 1258 ft | 125 kts | 230° |
| 2026-04-19 14:44 | 19.73217 | -155.09396 | 1165 ft | 104 kts | 186° |
| 2026-04-19 14:45 | 19.72540 | -155.09199 | 835 ft | 105 kts | 142° |
| 2026-04-19 14:45 | 19.72159 | -155.08568 | 573 ft | 97 kts | 104° |
| 2026-04-19 14:45 | 19.72135 | -155.07878 | 400 ft | 94 kts | 95° |
| 2026-04-19 14:45 | 19.72131 | -155.07191 | 322 ft | 94 kts | 91° |
| 2026-04-19 14:46 | 19.72152 | -155.06442 | 197 ft | 107 kts | 94° |
| 2026-04-19 14:46 | 19.72147 | -155.05689 | 59 ft | 98 kts | 92° |
| 2026-04-19 14:46 | 19.72148 | -155.05144 | 32 ft | 27 kts | 90° |
| 2026-04-19 14:46 | 19.72145 | -155.05011 | 32 ft | 19 kts | 93° |
| 2026-04-19 14:47 | 19.72074 | -155.04916 | 32 ft | 16 kts | 186° |
| 2026-04-19 14:47 | 19.72050 | -155.04917 | 32 ft | 0 kts | 180° |
| 2026-04-19 14:47 | 19.72040 | -155.04918 | 32 ft | 8 kts | 188° |
| 2026-04-19 14:47 | 19.72014 | -155.04991 | 32 ft | 14 kts | 272° |
| 2026-04-19 14:48 | 19.72015 | -155.05116 | 32 ft | 20 kts | 271° |
| 2026-04-19 14:48 | 19.72016 | -155.05283 | 31 ft | 25 kts | 270° |
| 2026-04-19 14:48 | 19.72016 | -155.05477 | 33 ft | 27 kts | 269° |
| 2026-04-19 14:48 | 19.72013 | -155.05678 | 32 ft | 26 kts | 266° |
| 2026-04-19 14:49 | 19.71940 | -155.05819 | 32 ft | 19 kts | 219° |
| 2026-04-19 14:49 | 19.71955 | -155.05884 | 31 ft | 4 kts | 11° |
| 2026-04-19 14:49 | 19.71961 | -155.05883 | 31 ft | 0 kts | 0° |